createdAt,value
2022-11-30T00:01:43.106Z,2.70
2022-11-30T00:04:12.184Z,2.88
2022-11-30T00:06:44.803Z,3.00
2022-11-30T00:09:13.745Z,2.83
2022-11-30T00:11:42.454Z,2.97
2022-11-30T00:14:11.190Z,3.47
2022-11-30T00:16:39.739Z,3.03
2022-11-30T00:19:09.890Z,3.25
2022-11-30T00:21:38.422Z,3.55
2022-11-30T00:24:08.242Z,3.50
2022-11-30T00:26:37.282Z,3.90
2022-11-30T00:29:05.879Z,3.88
2022-11-30T00:31:34.632Z,3.47
2022-11-30T00:34:03.196Z,3.45
2022-11-30T00:36:33.395Z,3.67
2022-11-30T00:39:02.173Z,3.80
2022-11-30T00:41:30.993Z,4.03
2022-11-30T00:43:59.535Z,3.63
2022-11-30T00:46:28.466Z,3.90
2022-11-30T00:48:57.059Z,3.65
2022-11-30T00:51:25.632Z,3.30
2022-11-30T00:53:55.926Z,3.10
2022-11-30T00:56:25.020Z,3.25
2022-11-30T00:58:53.887Z,3.25
2022-11-30T01:01:22.765Z,2.97
2022-11-30T01:03:51.336Z,2.80
2022-11-30T01:06:19.862Z,2.95
2022-11-30T01:08:49.168Z,2.90
2022-11-30T01:11:23.688Z,2.83
2022-11-30T01:13:52.752Z,2.65
2022-11-30T01:16:25.039Z,2.40
2022-11-30T01:18:54.148Z,3.15
2022-11-30T01:21:25.918Z,2.58
2022-11-30T01:23:54.893Z,2.45
2022-11-30T01:26:25.743Z,2.08
2022-11-30T01:28:57.012Z,2.35
2022-11-30T01:31:26.786Z,2.65
2022-11-30T01:33:57.127Z,2.50
2022-11-30T01:36:27.595Z,2.67
2022-11-30T01:38:58.281Z,2.47
2022-11-30T01:41:30.198Z,2.90
2022-11-30T01:44:38.182Z,2.67
2022-11-30T01:47:11.637Z,2.40
2022-11-30T01:49:44.586Z,2.60
2022-11-30T01:52:16.907Z,2.50
2022-11-30T01:54:51.280Z,2.92
2022-11-30T01:57:26.005Z,2.70
2022-11-30T01:59:58.597Z,2.55
2022-11-30T02:02:34.027Z,2.67
2022-11-30T02:05:03.009Z,2.40
2022-11-30T02:07:31.702Z,2.22
2022-11-30T02:10:00.622Z,2.25
2022-11-30T02:12:40.778Z,2.53
2022-11-30T02:15:13.884Z,2.63
2022-11-30T02:17:53.400Z,2.40
2022-11-30T02:20:51.887Z,2.67
2022-11-30T02:24:13.715Z,2.53
2022-11-30T02:27:03.527Z,2.63
2022-11-30T02:29:39.150Z,2.35
2022-11-30T02:32:11.790Z,2.20
2022-11-30T02:34:41.058Z,2.50
2022-11-30T02:37:12.343Z,1.80
2022-11-30T02:39:41.115Z,2.10
2022-11-30T02:42:13.343Z,2.08
2022-11-30T02:44:45.993Z,1.77
2022-11-30T02:47:22.889Z,1.30
2022-11-30T02:49:57.864Z,1.80
2022-11-30T02:52:29.443Z,1.70
2022-11-30T02:55:02.267Z,1.40
2022-11-30T02:57:31.126Z,1.83
2022-11-30T03:00:03.510Z,1.30
2022-11-30T03:02:32.111Z,1.77
2022-11-30T03:05:00.936Z,1.67
2022-11-30T03:07:30.037Z,1.85
2022-11-30T03:09:58.711Z,1.88
2022-11-30T03:12:27.527Z,1.98
2022-11-30T03:14:56.039Z,1.60
2022-11-30T03:17:26.251Z,1.48
2022-11-30T03:19:54.776Z,1.38
2022-11-30T03:22:23.529Z,1.70
2022-11-30T03:24:55.839Z,1.40
2022-11-30T03:27:24.633Z,1.50
2022-11-30T03:29:53.378Z,1.42
2022-11-30T03:32:22.180Z,1.75
2022-11-30T03:34:52.173Z,1.85
2022-11-30T03:37:20.763Z,1.85
2022-11-30T03:39:52.486Z,1.83
2022-11-30T03:42:25.307Z,1.70
2022-11-30T03:44:53.893Z,1.77
2022-11-30T03:47:22.752Z,1.80
2022-11-30T03:49:52.937Z,2.13
2022-11-30T03:52:21.683Z,2.30
2022-11-30T03:54:50.236Z,2.00
2022-11-30T03:57:19.036Z,1.95
2022-11-30T03:59:47.826Z,1.92
2022-11-30T04:02:16.839Z,2.15
2022-11-30T04:04:45.819Z,2.10
2022-11-30T04:07:15.918Z,2.30
2022-11-30T04:09:44.501Z,2.22
2022-11-30T04:12:13.031Z,2.20
2022-11-30T04:14:41.611Z,2.65
2022-11-30T04:17:10.196Z,2.88
2022-11-30T04:19:38.733Z,2.58
2022-11-30T04:22:07.986Z,2.50
2022-11-30T04:24:38.102Z,2.90
2022-11-30T04:27:06.936Z,2.72
2022-11-30T04:29:35.449Z,2.90
2022-11-30T04:32:04.006Z,3.30
2022-11-30T04:34:32.808Z,2.85
2022-11-30T04:37:01.355Z,2.85
2022-11-30T04:39:29.902Z,3.40
2022-11-30T04:41:59.824Z,3.50
2022-11-30T04:44:28.409Z,3.28
2022-11-30T04:46:57.322Z,3.38
2022-11-30T04:49:25.958Z,3.60
2022-11-30T04:51:54.732Z,2.70
2022-11-30T04:54:23.255Z,2.60
2022-11-30T04:56:51.812Z,2.85
2022-11-30T04:59:21.758Z,3.10
2022-11-30T05:01:50.391Z,3.22
2022-11-30T05:04:19.086Z,2.67
2022-11-30T05:06:47.685Z,2.97
2022-11-30T05:09:16.215Z,2.93
2022-11-30T05:11:44.756Z,3.40
2022-11-30T05:14:13.469Z,3.70
2022-11-30T05:16:43.440Z,4.00
2022-11-30T05:19:12.966Z,3.85
2022-11-30T05:21:45.580Z,3.85
2022-11-30T05:24:14.734Z,3.83
2022-11-30T05:26:43.313Z,3.40
2022-11-30T05:29:11.864Z,3.47
2022-11-30T05:31:41.122Z,3.70
2022-11-30T05:34:11.525Z,3.38
2022-11-30T05:36:40.297Z,3.60
2022-11-30T05:39:08.929Z,3.03
2022-11-30T05:41:37.698Z,3.30
2022-11-30T05:44:06.482Z,3.40
2022-11-30T05:46:40.667Z,3.10
2022-11-30T05:49:11.001Z,3.30
2022-11-30T05:51:41.932Z,3.13
2022-11-30T05:54:10.858Z,3.17
2022-11-30T05:56:39.407Z,3.15
2022-11-30T05:59:07.952Z,3.35
2022-11-30T06:01:36.579Z,2.67
2022-11-30T06:04:08.980Z,3.05
2022-11-30T06:06:39.058Z,3.00
2022-11-30T06:09:07.876Z,3.30
2022-11-30T06:11:36.456Z,2.70
2022-11-30T06:14:05.730Z,2.30
2022-11-30T06:16:34.628Z,2.20
2022-11-30T06:19:04.007Z,2.60
2022-11-30T06:21:32.551Z,2.83
2022-11-30T06:24:02.523Z,2.53
2022-11-30T06:26:31.066Z,1.95
2022-11-30T06:28:59.866Z,1.85
2022-11-30T06:31:28.482Z,2.35
2022-11-30T06:33:58.718Z,2.20
2022-11-30T06:36:31.320Z,2.20
2022-11-30T06:39:05.751Z,1.83
2022-11-30T06:41:34.285Z,2.42
2022-11-30T06:44:03.048Z,2.40
2022-11-30T06:46:31.870Z,2.38
2022-11-30T06:49:00.407Z,2.70
2022-11-30T06:51:29.224Z,4.70
2022-11-30T06:53:57.954Z,3.45
2022-11-30T06:56:27.921Z,3.63
2022-11-30T06:58:56.925Z,3.70
2022-11-30T07:01:25.669Z,3.38
2022-11-30T07:03:54.684Z,3.53
2022-11-30T07:06:23.270Z,2.55
2022-11-30T07:08:52.023Z,2.60
2022-11-30T07:11:20.553Z,3.28
2022-11-30T07:13:50.687Z,2.80
2022-11-30T07:16:19.256Z,3.10
2022-11-30T07:18:48.064Z,3.25
2022-11-30T07:21:16.636Z,3.10
2022-11-30T07:24:02.797Z,3.72
2022-11-30T07:26:31.495Z,3.10
2022-11-30T07:29:01.422Z,2.78
2022-11-30T07:31:33.688Z,2.95
2022-11-30T07:34:08.540Z,2.80
2022-11-30T07:36:38.089Z,3.40
2022-11-30T07:39:07.081Z,3.85
2022-11-30T07:41:35.657Z,3.10
2022-11-30T07:44:07.761Z,3.25
2022-11-30T07:46:37.009Z,3.60
2022-11-30T07:49:07.209Z,3.47
2022-11-30T07:51:36.106Z,3.80
2022-11-30T07:54:05.507Z,3.90
2022-11-30T07:56:34.070Z,4.00
2022-11-30T07:59:04.129Z,3.70
2022-11-30T08:01:35.037Z,4.32
2022-11-30T08:04:04.193Z,4.05
2022-11-30T08:06:33.635Z,3.80
2022-11-30T08:09:05.277Z,4.97
2022-11-30T08:11:36.229Z,4.15
2022-11-30T08:14:05.970Z,3.58
2022-11-30T08:16:39.108Z,4.20
2022-11-30T08:19:07.982Z,4.50
2022-11-30T08:21:38.157Z,4.00
2022-11-30T08:24:07.709Z,3.60
2022-11-30T08:26:36.291Z,3.70
2022-11-30T08:29:05.126Z,3.53
2022-11-30T08:31:36.095Z,3.50
2022-11-30T08:34:09.420Z,3.10
2022-11-30T08:36:38.161Z,3.88
2022-11-30T08:39:09.763Z,2.90
2022-11-30T08:41:39.475Z,3.00
2022-11-30T08:44:08.653Z,3.35
2022-11-30T08:46:54.267Z,3.00
2022-11-30T08:49:25.385Z,3.38
2022-11-30T08:54:47.238Z,3.80
2022-11-30T08:57:17.596Z,4.28
2022-11-30T08:59:46.773Z,4.72
2022-11-30T09:02:19.384Z,11.10
2022-11-30T09:04:51.814Z,9.80
2022-11-30T09:07:21.278Z,6.95
2022-11-30T09:09:50.195Z,4.35
2022-11-30T09:12:19.041Z,5.03
2022-11-30T09:14:55.923Z,5.07
2022-11-30T09:17:26.575Z,3.80
2022-11-30T09:19:56.709Z,3.50
2022-11-30T09:22:25.373Z,3.83
2022-11-30T09:24:54.229Z,3.88
2022-11-30T09:27:23.649Z,3.67
2022-11-30T09:29:52.234Z,3.40
2022-11-30T09:32:20.827Z,4.63
2022-11-30T09:34:50.859Z,3.60
2022-11-30T09:37:21.220Z,3.80
2022-11-30T09:39:49.838Z,3.78
2022-11-30T09:42:44.827Z,4.70
2022-11-30T09:45:19.835Z,5.28
2022-11-30T09:48:20.859Z,4.28
2022-11-30T09:50:51.131Z,4.03
2022-11-30T09:53:29.961Z,4.32
2022-11-30T09:56:00.485Z,4.82
2022-11-30T09:58:39.374Z,4.10
2022-11-30T10:01:16.419Z,4.30
2022-11-30T10:03:45.074Z,4.78
2022-11-30T10:06:23.799Z,4.88
2022-11-30T10:09:25.213Z,4.60
2022-11-30T10:12:01.846Z,5.30
2022-11-30T10:14:58.618Z,5.60
2022-11-30T10:17:41.882Z,5.80
2022-11-30T10:20:45.700Z,6.00
2022-11-30T10:23:42.029Z,6.43
2022-11-30T10:26:16.540Z,5.47
2022-11-30T10:28:53.196Z,5.93
2022-11-30T10:31:35.496Z,8.25
2022-11-30T10:34:19.951Z,5.72
2022-11-30T10:36:54.627Z,5.32
2022-11-30T10:39:29.866Z,4.45
2022-11-30T10:42:06.392Z,5.22
2022-11-30T10:44:40.245Z,5.15
2022-11-30T10:47:15.882Z,5.88
2022-11-30T10:49:51.079Z,5.95
2022-11-30T10:52:23.909Z,5.80
2022-11-30T10:55:02.209Z,5.55
2022-11-30T10:57:35.002Z,5.70
2022-11-30T11:00:07.973Z,6.70
2022-11-30T11:02:42.850Z,5.47
2022-11-30T11:05:19.731Z,5.10
2022-11-30T11:08:04.341Z,4.63
2022-11-30T11:10:37.662Z,4.70
2022-11-30T11:13:08.058Z,5.18
2022-11-30T11:15:37.527Z,6.88
2022-11-30T11:18:28.073Z,5.53
2022-11-30T11:21:06.791Z,5.85
2022-11-30T11:23:39.622Z,5.18
2022-11-30T11:26:18.084Z,4.00
2022-11-30T11:28:51.371Z,2.65
2022-11-30T11:31:36.932Z,7.20
2022-11-30T11:34:11.073Z,7.47
2022-11-30T11:36:39.627Z,5.38
2022-11-30T11:39:28.224Z,7.20
2022-11-30T11:41:56.802Z,5.38
2022-11-30T11:44:28.769Z,14.75
2022-11-30T11:46:59.769Z,5.32
2022-11-30T11:49:30.419Z,3.28
2022-11-30T11:52:03.468Z,2.60
2022-11-30T11:54:38.262Z,17.35
2022-11-30T11:57:10.631Z,7.50
2022-11-30T11:59:50.262Z,2.92
2022-11-30T12:02:29.253Z,2.72
2022-11-30T12:05:00.885Z,2.50
2022-11-30T12:07:36.383Z,3.13
2022-11-30T12:10:51.111Z,3.10
2022-11-30T12:13:19.728Z,3.10
2022-11-30T12:16:06.676Z,3.17
2022-11-30T12:18:46.332Z,3.70
2022-11-30T12:21:17.622Z,4.13
2022-11-30T12:24:20.484Z,3.42
2022-11-30T12:26:57.715Z,2.05
2022-11-30T12:29:38.140Z,1.98
2022-11-30T12:32:26.285Z,2.72
2022-11-30T12:35:13.133Z,3.30
2022-11-30T12:37:52.997Z,2.50
2022-11-30T12:40:36.391Z,2.83
2022-11-30T12:43:16.837Z,2.85
2022-11-30T12:45:46.552Z,2.47
2022-11-30T12:48:29.915Z,2.95
2022-11-30T12:51:16.620Z,2.80
2022-11-30T12:53:55.473Z,2.75
2022-11-30T12:56:33.273Z,2.25
2022-11-30T12:59:17.912Z,2.22
2022-11-30T13:02:04.304Z,1.90
2022-11-30T13:04:42.506Z,1.92
2022-11-30T13:07:22.723Z,2.22
2022-11-30T13:09:55.797Z,1.88
2022-11-30T13:12:36.298Z,2.13
2022-11-30T13:15:15.289Z,2.40
2022-11-30T13:17:45.272Z,2.67
2022-11-30T13:20:23.467Z,1.90
2022-11-30T13:23:00.212Z,2.15
2022-11-30T13:28:39.507Z,2.10
2022-11-30T13:31:12.065Z,2.53
2022-11-30T13:33:51.191Z,2.50
2022-11-30T13:36:41.515Z,2.58
2022-11-30T13:39:25.378Z,2.60
2022-11-30T13:42:35.917Z,2.72
2022-11-30T13:45:32.141Z,2.65
2022-11-30T13:48:17.864Z,3.13
2022-11-30T13:50:50.246Z,2.70
2022-11-30T13:53:27.607Z,2.70
2022-11-30T13:56:05.760Z,3.05
2022-11-30T13:58:35.183Z,2.97
2022-11-30T14:01:28.659Z,2.80
2022-11-30T14:04:38.463Z,3.00
2022-11-30T14:07:37.385Z,2.72
2022-11-30T14:10:29.427Z,3.10
2022-11-30T14:13:02.861Z,3.63
2022-11-30T14:16:01.533Z,5.18
2022-11-30T14:18:42.073Z,3.10
2022-11-30T14:21:32.604Z,3.35
2022-11-30T14:24:06.729Z,3.42
2022-11-30T14:26:43.994Z,3.00
2022-11-30T14:29:18.875Z,3.20
2022-11-30T14:31:58.359Z,3.53
2022-11-30T14:34:32.338Z,3.25
2022-11-30T14:37:05.776Z,3.00
2022-11-30T14:39:37.304Z,4.15
2022-11-30T14:42:08.010Z,3.45
2022-11-30T14:44:38.080Z,3.03
2022-11-30T14:47:18.143Z,3.25
2022-11-30T14:49:47.938Z,3.22
2022-11-30T14:52:37.871Z,3.15
2022-11-30T14:55:21.890Z,3.05
2022-11-30T14:58:02.573Z,3.00
2022-11-30T15:00:39.708Z,3.50
2022-11-30T15:03:21.332Z,3.55
2022-11-30T15:05:54.088Z,3.58
2022-11-30T15:08:23.886Z,3.40
2022-11-30T15:10:52.586Z,3.92
2022-11-30T15:13:22.787Z,9.57
2022-11-30T15:15:56.647Z,6.60
2022-11-30T15:18:26.410Z,7.80
2022-11-30T15:21:00.078Z,6.55
2022-11-30T15:23:29.023Z,4.05
2022-11-30T15:26:02.318Z,4.15
2022-11-30T15:28:36.012Z,4.50
2022-11-30T15:31:09.614Z,3.88
2022-11-30T15:33:44.145Z,4.38
2022-11-30T15:36:31.423Z,3.78
2022-11-30T15:39:06.506Z,3.80
2022-11-30T15:41:36.295Z,4.35
2022-11-30T15:44:06.627Z,3.78
2022-11-30T15:46:42.708Z,3.42
2022-11-30T15:49:21.547Z,3.08
2022-11-30T15:52:04.663Z,3.20
2022-11-30T15:54:52.710Z,4.45
2022-11-30T15:57:22.358Z,3.25
2022-11-30T16:00:09.293Z,3.63
2022-11-30T16:02:39.125Z,3.53
2022-11-30T16:05:26.082Z,3.05
2022-11-30T16:07:59.955Z,3.08
2022-11-30T16:10:39.367Z,3.08
2022-11-30T16:13:08.196Z,3.00
2022-11-30T16:15:39.694Z,2.78
2022-11-30T16:18:17.868Z,2.70
2022-11-30T16:20:49.594Z,3.20
2022-11-30T16:23:19.307Z,2.60
2022-11-30T16:25:50.046Z,2.80
2022-11-30T16:28:23.115Z,12.98
2022-11-30T16:30:55.548Z,9.82
2022-11-30T16:33:25.900Z,5.30
2022-11-30T16:35:58.089Z,3.95
2022-11-30T16:38:27.712Z,4.15
2022-11-30T16:40:57.391Z,3.30
2022-11-30T16:43:26.916Z,5.20
2022-11-30T16:45:57.052Z,4.75
2022-11-30T16:48:25.666Z,3.70
2022-11-30T16:50:54.720Z,4.43
2022-11-30T16:53:28.444Z,4.78
2022-11-30T16:55:57.320Z,5.35
2022-11-30T16:58:25.791Z,4.30
2022-11-30T17:00:55.100Z,4.60
2022-11-30T17:03:31.322Z,4.28
2022-11-30T17:05:59.851Z,4.70
2022-11-30T17:08:28.566Z,3.78
2022-11-30T17:10:57.318Z,3.70
2022-11-30T17:13:25.874Z,3.80
2022-11-30T17:15:54.450Z,3.92
2022-11-30T17:18:24.397Z,3.80
2022-11-30T17:20:52.998Z,3.42
2022-11-30T17:23:21.671Z,2.92
2022-11-30T17:25:50.199Z,3.13
2022-11-30T17:28:18.762Z,3.33
2022-11-30T17:30:47.321Z,3.90
2022-11-30T17:33:16.082Z,4.57
2022-11-30T17:35:46.018Z,6.28
2022-11-30T17:38:14.769Z,4.13
2022-11-30T17:40:43.383Z,4.40
2022-11-30T17:43:12.137Z,4.13
2022-11-30T17:45:41.523Z,3.65
2022-11-30T17:48:10.114Z,3.55
2022-11-30T17:50:40.238Z,3.60
2022-11-30T17:53:13.060Z,2.95
2022-11-30T17:55:45.454Z,2.92
2022-11-30T17:58:14.093Z,3.20
2022-11-30T18:00:42.689Z,3.55
2022-11-30T18:03:11.476Z,3.50
2022-11-30T18:05:40.004Z,3.80
2022-11-30T18:08:09.962Z,4.10
2022-11-30T18:10:40.966Z,2.92
2022-11-30T18:13:09.494Z,3.40
2022-11-30T18:15:38.083Z,3.15
2022-11-30T18:18:06.916Z,3.80
2022-11-30T18:20:35.962Z,3.65
2022-11-30T18:23:04.747Z,3.80
2022-11-30T18:25:35.202Z,4.18
2022-11-30T18:28:03.869Z,3.92
2022-11-30T18:30:32.474Z,3.92
2022-11-30T18:33:01.230Z,3.92
2022-11-30T18:35:30.278Z,3.58
2022-11-30T18:37:59.239Z,4.00
2022-11-30T18:40:28.103Z,3.85
2022-11-30T18:42:59.031Z,4.40
2022-11-30T18:45:27.638Z,4.28
2022-11-30T18:47:56.198Z,4.10
2022-11-30T18:50:24.933Z,4.18
2022-11-30T18:52:55.008Z,4.53
2022-11-30T18:55:23.989Z,4.00
2022-11-30T18:57:53.212Z,4.32
2022-11-30T19:00:24.921Z,5.95
2022-11-30T19:02:53.557Z,4.72
2022-11-30T19:05:35.145Z,4.90
2022-11-30T19:08:07.506Z,4.72
2022-11-30T19:10:38.253Z,5.10
2022-11-30T19:13:08.157Z,4.95
2022-11-30T19:15:40.486Z,4.80
2022-11-30T19:18:11.170Z,4.88
2022-11-30T19:20:40.561Z,5.78
2022-11-30T19:23:09.575Z,5.28
2022-11-30T19:25:38.356Z,4.60
2022-11-30T19:28:07.226Z,4.40
2022-11-30T19:30:35.878Z,5.55
2022-11-30T19:33:05.928Z,5.15
2022-11-30T19:35:34.642Z,4.68
2022-11-30T19:38:03.277Z,4.68
2022-11-30T19:40:32.129Z,5.80
2022-11-30T19:43:00.733Z,6.15
2022-11-30T19:45:29.498Z,5.15
2022-11-30T19:47:58.040Z,5.20
2022-11-30T19:50:28.170Z,4.78
2022-11-30T19:52:57.003Z,4.88
2022-11-30T19:55:25.727Z,5.60
2022-11-30T19:57:54.271Z,6.78
2022-11-30T20:00:23.233Z,15.07
2022-11-30T20:02:51.851Z,9.02
2022-11-30T20:05:20.725Z,10.10
2022-11-30T20:07:50.935Z,10.18
2022-11-30T20:10:19.900Z,6.65
2022-11-30T20:12:48.448Z,6.10
2022-11-30T20:15:17.030Z,6.13
2022-11-30T20:17:45.553Z,5.85
2022-11-30T20:20:14.469Z,5.97
2022-11-30T20:22:43.235Z,5.68
2022-11-30T20:25:13.190Z,5.68
2022-11-30T20:27:42.170Z,5.47
2022-11-30T20:30:11.861Z,6.15
2022-11-30T20:32:42.688Z,5.55
2022-11-30T20:35:12.284Z,5.03
2022-11-30T20:37:40.884Z,6.75
2022-11-30T20:40:12.951Z,6.70
2022-11-30T20:42:41.728Z,6.93
2022-11-30T20:45:11.036Z,6.85
2022-11-30T20:47:39.847Z,6.28
2022-11-30T20:50:10.006Z,6.35
2022-11-30T20:52:38.772Z,6.60
2022-11-30T20:55:08.137Z,7.35
2022-11-30T20:57:38.069Z,7.13
2022-11-30T21:00:13.080Z,6.78
2022-11-30T21:02:42.062Z,6.68
2022-11-30T21:05:11.203Z,6.97
2022-11-30T21:07:39.775Z,6.57
2022-11-30T21:10:10.545Z,5.60
2022-11-30T21:12:41.178Z,5.38
2022-11-30T21:15:11.235Z,6.03
2022-11-30T21:17:39.878Z,7.18
2022-11-30T21:20:10.202Z,6.30
2022-11-30T21:22:39.284Z,6.72
2022-11-30T21:25:08.732Z,6.80
2022-11-30T21:27:37.319Z,7.05
2022-11-30T21:30:09.332Z,6.45
2022-11-30T21:32:37.892Z,6.13
2022-11-30T21:35:07.822Z,6.57
2022-11-30T21:37:36.458Z,6.13
2022-11-30T21:40:05.975Z,5.65
2022-11-30T21:42:34.483Z,5.82
2022-11-30T21:45:03.035Z,6.35
2022-11-30T21:47:33.834Z,5.47
2022-11-30T21:50:02.569Z,6.07
2022-11-30T21:52:31.143Z,6.30
2022-11-30T21:54:59.708Z,6.10
2022-11-30T21:57:28.258Z,6.07
2022-11-30T21:59:56.767Z,6.35
2022-11-30T22:02:25.350Z,5.80
2022-11-30T22:04:55.300Z,6.15
2022-11-30T22:07:32.037Z,6.10
2022-11-30T22:10:00.671Z,6.78
2022-11-30T22:12:29.497Z,8.93
2022-11-30T22:14:58.051Z,8.02
2022-11-30T22:17:26.610Z,7.22
2022-11-30T22:19:56.553Z,6.32
2022-11-30T22:22:25.903Z,6.70
2022-11-30T22:24:55.728Z,6.57
2022-11-30T22:27:24.499Z,6.43
2022-11-30T22:29:54.860Z,6.50
2022-11-30T22:32:23.592Z,6.50
2022-11-30T22:34:52.124Z,6.63
2022-11-30T22:37:22.035Z,5.85
2022-11-30T22:39:50.819Z,6.13
2022-11-30T22:42:19.424Z,5.55
2022-11-30T22:44:47.983Z,5.90
2022-11-30T22:47:17.687Z,6.00
2022-11-30T22:49:46.561Z,6.22
2022-11-30T22:52:15.519Z,6.53
2022-11-30T22:54:45.577Z,6.40
2022-11-30T22:57:14.202Z,5.88
2022-11-30T22:59:43.020Z,6.05
2022-11-30T23:02:11.841Z,5.80
2022-11-30T23:04:40.600Z,6.50
2022-11-30T23:07:09.118Z,6.45
2022-11-30T23:09:37.649Z,6.35
2022-11-30T23:12:08.142Z,6.25
2022-11-30T23:14:36.678Z,5.75
2022-11-30T23:17:06.409Z,5.88
2022-11-30T23:19:34.940Z,5.10
2022-11-30T23:22:03.469Z,6.28
2022-11-30T23:24:32.069Z,6.13
2022-11-30T23:27:01.097Z,5.40
2022-11-30T23:29:33.024Z,5.65
2022-11-30T23:32:02.309Z,5.50
2022-11-30T23:34:30.934Z,4.88
2022-11-30T23:36:59.509Z,5.47
2022-11-30T23:39:28.215Z,5.38
2022-11-30T23:41:57.238Z,5.72
2022-11-30T23:44:25.746Z,4.93
2022-11-30T23:46:55.998Z,4.82
2022-11-30T23:49:24.567Z,4.95
2022-11-30T23:51:53.321Z,5.28
2022-11-30T23:54:22.269Z,4.85
2022-11-30T23:56:51.134Z,5.07
2022-11-30T23:59:19.942Z,4.68
